sensor_id;sensor_type;location;lat;lon;timestamp;P1;durP1;ratioP1;P2;durP2;ratioP2
19951;SDS011;10137;49.406;19.484;2022-10-26T05:24:23;26.87;;;9.03;;
19951;SDS011;10137;49.406;19.484;2022-10-26T05:26:50;31.07;;;7.60;;
19951;SDS011;10137;49.406;19.484;2022-10-26T05:29:17;26.50;;;9.00;;
19951;SDS011;10137;49.406;19.484;2022-10-26T05:31:44;19.10;;;8.47;;
19951;SDS011;10137;49.406;19.484;2022-10-26T05:34:11;18.93;;;7.30;;
19951;SDS011;10137;49.406;19.484;2022-10-26T05:36:39;17.53;;;7.17;;
19951;SDS011;10137;49.406;19.484;2022-10-26T05:39:05;19.83;;;6.90;;
19951;SDS011;10137;49.406;19.484;2022-10-26T05:41:34;24.00;;;7.20;;
19951;SDS011;10137;49.406;19.484;2022-10-26T05:44:01;32.93;;;7.53;;
19951;SDS011;10137;49.406;19.484;2022-10-26T05:46:28;20.43;;;7.63;;
19951;SDS011;10137;49.406;19.484;2022-10-26T05:48:55;17.50;;;6.80;;
19951;SDS011;10137;49.406;19.484;2022-10-26T05:51:22;11.53;;;6.20;;
19951;SDS011;10137;49.406;19.484;2022-10-26T05:53:50;12.37;;;6.60;;
19951;SDS011;10137;49.406;19.484;2022-10-26T05:56:19;12.13;;;6.33;;
19951;SDS011;10137;49.406;19.484;2022-10-26T05:58:53;10.60;;;6.13;;
19951;SDS011;10137;49.406;19.484;2022-10-26T06:01:23;17.87;;;7.60;;
19951;SDS011;10137;49.406;19.484;2022-10-26T06:04:00;17.97;;;8.37;;
19951;SDS011;10137;49.406;19.484;2022-10-26T06:06:37;22.63;;;11.40;;
19951;SDS011;10137;49.406;19.484;2022-10-26T06:09:08;35.43;;;18.40;;
19951;SDS011;10137;49.406;19.484;2022-10-26T06:11:36;37.50;;;17.80;;
19951;SDS011;10137;49.406;19.484;2022-10-26T06:14:05;35.53;;;17.27;;
19951;SDS011;10137;49.406;19.484;2022-10-26T06:16:36;46.10;;;17.07;;
19951;SDS011;10137;49.406;19.484;2022-10-26T06:19:15;32.30;;;14.87;;
19951;SDS011;10137;49.406;19.484;2022-10-26T06:21:54;49.03;;;14.07;;
19951;SDS011;10137;49.406;19.484;2022-10-26T06:24:29;51.33;;;15.43;;
19951;SDS011;10137;49.406;19.484;2022-10-26T06:27:06;46.57;;;15.47;;
19951;SDS011;10137;49.406;19.484;2022-10-26T06:29:42;53.33;;;16.87;;
19951;SDS011;10137;49.406;19.484;2022-10-26T06:32:15;85.07;;;13.80;;
19951;SDS011;10137;49.406;19.484;2022-10-26T06:34:44;73.00;;;15.10;;
19951;SDS011;10137;49.406;19.484;2022-10-26T06:37:14;70.10;;;15.03;;
19951;SDS011;10137;49.406;19.484;2022-10-26T06:39:43;61.80;;;14.73;;
19951;SDS011;10137;49.406;19.484;2022-10-26T06:42:11;66.90;;;14.60;;
19951;SDS011;10137;49.406;19.484;2022-10-26T06:44:39;54.10;;;13.50;;
19951;SDS011;10137;49.406;19.484;2022-10-26T06:47:09;54.07;;;12.87;;
19951;SDS011;10137;49.406;19.484;2022-10-26T06:49:47;60.90;;;14.60;;
19951;SDS011;10137;49.406;19.484;2022-10-26T06:52:22;40.10;;;13.27;;
19951;SDS011;10137;49.406;19.484;2022-10-26T06:54:55;26.80;;;12.03;;
19951;SDS011;10137;49.406;19.484;2022-10-26T06:57:23;25.00;;;11.33;;
19951;SDS011;10137;49.406;19.484;2022-10-26T06:59:55;21.80;;;10.80;;
19951;SDS011;10137;49.406;19.484;2022-10-26T07:02:24;27.93;;;10.70;;
19951;SDS011;10137;49.406;19.484;2022-10-26T07:04:51;24.57;;;10.30;;
19951;SDS011;10137;49.406;19.484;2022-10-26T07:07:19;31.33;;;11.50;;
19951;SDS011;10137;49.406;19.484;2022-10-26T07:09:47;27.23;;;11.23;;
19951;SDS011;10137;49.406;19.484;2022-10-26T07:12:14;34.07;;;10.60;;
19951;SDS011;10137;49.406;19.484;2022-10-26T07:14:41;26.67;;;11.63;;
19951;SDS011;10137;49.406;19.484;2022-10-26T07:17:10;18.80;;;10.90;;
19951;SDS011;10137;49.406;19.484;2022-10-26T07:19:37;28.53;;;11.37;;
19951;SDS011;10137;49.406;19.484;2022-10-26T07:22:04;23.93;;;11.23;;
19951;SDS011;10137;49.406;19.484;2022-10-26T07:24:31;21.43;;;11.67;;
19951;SDS011;10137;49.406;19.484;2022-10-26T07:27:00;21.73;;;11.60;;
19951;SDS011;10137;49.406;19.484;2022-10-26T07:29:27;21.73;;;10.57;;
19951;SDS011;10137;49.406;19.484;2022-10-26T07:31:54;22.37;;;11.87;;
19951;SDS011;10137;49.406;19.484;2022-10-26T07:34:22;22.97;;;13.27;;
19951;SDS011;10137;49.406;19.484;2022-10-26T07:36:49;26.23;;;13.53;;
19951;SDS011;10137;49.406;19.484;2022-10-26T07:39:16;20.83;;;12.37;;
19951;SDS011;10137;49.406;19.484;2022-10-26T07:41:43;26.00;;;13.60;;
19951;SDS011;10137;49.406;19.484;2022-10-26T07:44:11;20.73;;;11.37;;
19951;SDS011;10137;49.406;19.484;2022-10-26T07:46:40;13.43;;;8.37;;
19951;SDS011;10137;49.406;19.484;2022-10-26T07:49:07;13.53;;;8.00;;
19951;SDS011;10137;49.406;19.484;2022-10-26T07:51:35;17.83;;;9.10;;
19951;SDS011;10137;49.406;19.484;2022-10-26T07:54:03;46.00;;;23.57;;
19951;SDS011;10137;49.406;19.484;2022-10-26T07:56:30;42.87;;;22.97;;
19951;SDS011;10137;49.406;19.484;2022-10-26T07:58:56;39.07;;;19.30;;
19951;SDS011;10137;49.406;19.484;2022-10-26T08:01:24;42.13;;;20.57;;
19951;SDS011;10137;49.406;19.484;2022-10-26T08:03:51;33.80;;;18.57;;
19951;SDS011;10137;49.406;19.484;2022-10-26T08:06:19;36.13;;;15.73;;
19951;SDS011;10137;49.406;19.484;2022-10-26T08:08:47;30.10;;;14.03;;
19951;SDS011;10137;49.406;19.484;2022-10-26T08:11:16;29.43;;;13.77;;
19951;SDS011;10137;49.406;19.484;2022-10-26T08:13:43;25.80;;;12.80;;
19951;SDS011;10137;49.406;19.484;2022-10-26T08:16:10;27.63;;;12.80;;
19951;SDS011;10137;49.406;19.484;2022-10-26T08:18:37;38.17;;;15.07;;
19951;SDS011;10137;49.406;19.484;2022-10-26T08:21:05;34.07;;;13.50;;
19951;SDS011;10137;49.406;19.484;2022-10-26T08:23:33;25.37;;;12.03;;
19951;SDS011;10137;49.406;19.484;2022-10-26T08:26:02;23.13;;;11.97;;
19951;SDS011;10137;49.406;19.484;2022-10-26T08:28:29;25.30;;;11.47;;
19951;SDS011;10137;49.406;19.484;2022-10-26T08:30:56;19.97;;;11.93;;
19951;SDS011;10137;49.406;19.484;2022-10-26T08:33:26;17.90;;;11.20;;
19951;SDS011;10137;49.406;19.484;2022-10-26T08:35:54;21.67;;;11.37;;
19951;SDS011;10137;49.406;19.484;2022-10-26T08:38:21;21.47;;;11.07;;
19951;SDS011;10137;49.406;19.484;2022-10-26T08:40:48;20.03;;;10.57;;
19951;SDS011;10137;49.406;19.484;2022-10-26T08:43:18;18.33;;;10.37;;
19951;SDS011;10137;49.406;19.484;2022-10-26T08:45:52;25.20;;;11.73;;
19951;SDS011;10137;49.406;19.484;2022-10-26T08:48:24;18.97;;;11.07;;
19951;SDS011;10137;49.406;19.484;2022-10-26T08:50:58;19.37;;;10.73;;
19951;SDS011;10137;49.406;19.484;2022-10-26T08:53:28;16.37;;;9.70;;
19951;SDS011;10137;49.406;19.484;2022-10-26T08:55:59;13.37;;;8.67;;
19951;SDS011;10137;49.406;19.484;2022-10-26T08:58:34;16.47;;;8.03;;
19951;SDS011;10137;49.406;19.484;2022-10-26T09:01:04;10.40;;;7.03;;
19951;SDS011;10137;49.406;19.484;2022-10-26T09:03:31;14.33;;;8.07;;
19951;SDS011;10137;49.406;19.484;2022-10-26T09:06:04;9.60;;;6.90;;
19951;SDS011;10137;49.406;19.484;2022-10-26T09:08:43;12.30;;;6.97;;
19951;SDS011;10137;49.406;19.484;2022-10-26T09:11:22;11.93;;;6.40;;
19951;SDS011;10137;49.406;19.484;2022-10-26T09:14:06;8.83;;;4.97;;
19951;SDS011;10137;49.406;19.484;2022-10-26T09:16:40;7.77;;;4.90;;
19951;SDS011;10137;49.406;19.484;2022-10-26T09:19:22;7.83;;;4.43;;
19951;SDS011;10137;49.406;19.484;2022-10-26T09:22:18;10.43;;;5.17;;
19951;SDS011;10137;49.406;19.484;2022-10-26T09:24:48;12.83;;;5.90;;
19951;SDS011;10137;49.406;19.484;2022-10-26T09:27:19;7.83;;;4.97;;
19951;SDS011;10137;49.406;19.484;2022-10-26T09:29:53;13.63;;;5.40;;
19951;SDS011;10137;49.406;19.484;2022-10-26T09:32:22;6.93;;;4.60;;
19951;SDS011;10137;49.406;19.484;2022-10-26T09:34:52;9.40;;;4.17;;
19951;SDS011;10137;49.406;19.484;2022-10-26T09:37:24;6.97;;;4.40;;
19951;SDS011;10137;49.406;19.484;2022-10-26T09:39:55;11.80;;;4.70;;
19951;SDS011;10137;49.406;19.484;2022-10-26T09:42:32;6.20;;;4.20;;
19951;SDS011;10137;49.406;19.484;2022-10-26T09:45:09;11.23;;;3.83;;
19951;SDS011;10137;49.406;19.484;2022-10-26T09:47:43;8.33;;;4.17;;
19951;SDS011;10137;49.406;19.484;2022-10-26T09:50:17;14.97;;;4.33;;
19951;SDS011;10137;49.406;19.484;2022-10-26T09:52:49;5.37;;;3.03;;
19951;SDS011;10137;49.406;19.484;2022-10-26T09:55:16;8.43;;;3.47;;
19951;SDS011;10137;49.406;19.484;2022-10-26T09:57:45;7.20;;;3.17;;
19951;SDS011;10137;49.406;19.484;2022-10-26T10:00:17;7.07;;;3.20;;
19951;SDS011;10137;49.406;19.484;2022-10-26T10:02:47;6.30;;;2.60;;
19951;SDS011;10137;49.406;19.484;2022-10-26T10:05:21;8.93;;;3.47;;
19951;SDS011;10137;49.406;19.484;2022-10-26T10:07:50;18.70;;;4.70;;
19951;SDS011;10137;49.406;19.484;2022-10-26T10:10:18;13.23;;;4.07;;
19951;SDS011;10137;49.406;19.484;2022-10-26T10:12:47;17.37;;;4.10;;
19951;SDS011;10137;49.406;19.484;2022-10-26T10:15:18;7.70;;;2.67;;
19951;SDS011;10137;49.406;19.484;2022-10-26T10:17:47;18.70;;;5.00;;
19951;SDS011;10137;49.406;19.484;2022-10-26T10:20:20;10.03;;;3.60;;
19951;SDS011;10137;49.406;19.484;2022-10-26T10:22:55;8.97;;;3.40;;
19951;SDS011;10137;49.406;19.484;2022-10-26T10:25:31;5.07;;;2.80;;
19951;SDS011;10137;49.406;19.484;2022-10-26T10:27:59;5.17;;;2.83;;
19951;SDS011;10137;49.406;19.484;2022-10-26T10:30:30;17.50;;;3.50;;
19951;SDS011;10137;49.406;19.484;2022-10-26T10:33:02;6.90;;;2.58;;
19951;SDS011;10137;49.406;19.484;2022-10-26T10:35:30;7.00;;;3.00;;
19951;SDS011;10137;49.406;19.484;2022-10-26T10:37:58;6.22;;;2.88;;
19951;SDS011;10137;49.406;19.484;2022-10-26T10:40:25;10.40;;;2.95;;
19951;SDS011;10137;49.406;19.484;2022-10-26T10:43:01;15.27;;;3.55;;
19951;SDS011;10137;49.406;19.484;2022-10-26T10:45:31;17.42;;;2.30;;
19951;SDS011;10137;49.406;19.484;2022-10-26T10:48:00;13.75;;;1.65;;
19951;SDS011;10137;49.406;19.484;2022-10-26T10:50:30;5.75;;;1.15;;
19951;SDS011;10137;49.406;19.484;2022-10-26T10:53:11;16.80;;;1.95;;
19951;SDS011;10137;49.406;19.484;2022-10-26T10:55:45;4.53;;;1.08;;
19951;SDS011;10137;49.406;19.484;2022-10-26T10:58:20;9.77;;;1.38;;
19951;SDS011;10137;49.406;19.484;2022-10-26T11:00:54;6.50;;;1.25;;
19951;SDS011;10137;49.406;19.484;2022-10-26T11:03:24;13.50;;;1.77;;
19951;SDS011;10137;49.406;19.484;2022-10-26T11:05:59;2.67;;;1.10;;
19951;SDS011;10137;49.406;19.484;2022-10-26T11:08:37;5.45;;;1.30;;
19951;SDS011;10137;49.406;19.484;2022-10-26T11:11:10;1.98;;;0.90;;
19951;SDS011;10137;49.406;19.484;2022-10-26T11:13:43;6.70;;;1.38;;
19951;SDS011;10137;49.406;19.484;2022-10-26T11:16:18;10.13;;;1.50;;
19951;SDS011;10137;49.406;19.484;2022-10-26T11:18:49;3.42;;;1.27;;
19951;SDS011;10137;49.406;19.484;2022-10-26T11:21:23;5.32;;;1.30;;
19951;SDS011;10137;49.406;19.484;2022-10-26T11:23:54;4.72;;;1.00;;
19951;SDS011;10137;49.406;19.484;2022-10-26T11:26:32;10.40;;;1.33;;
19951;SDS011;10137;49.406;19.484;2022-10-26T11:29:04;4.88;;;1.00;;
19951;SDS011;10137;49.406;19.484;2022-10-26T11:31:38;8.00;;;1.33;;
19951;SDS011;10137;49.406;19.484;2022-10-26T11:34:15;21.80;;;2.70;;
19951;SDS011;10137;49.406;19.484;2022-10-26T11:36:49;1.08;;;0.80;;
19951;SDS011;10137;49.406;19.484;2022-10-26T11:39:21;1.67;;;0.50;;
19951;SDS011;10137;49.406;19.484;2022-10-26T11:41:59;19.30;;;2.50;;
19951;SDS011;10137;49.406;19.484;2022-10-26T11:44:33;12.63;;;1.60;;
19951;SDS011;10137;49.406;19.484;2022-10-26T11:47:06;9.30;;;1.48;;
19951;SDS011;10137;49.406;19.484;2022-10-26T11:49:40;9.70;;;1.50;;
19951;SDS011;10137;49.406;19.484;2022-10-26T11:52:12;15.80;;;1.73;;
19951;SDS011;10137;49.406;19.484;2022-10-26T11:54:43;3.67;;;1.00;;
19951;SDS011;10137;49.406;19.484;2022-10-26T11:57:16;3.60;;;1.00;;
19951;SDS011;10137;49.406;19.484;2022-10-26T11:59:46;6.45;;;0.80;;
19951;SDS011;10137;49.406;19.484;2022-10-26T12:02:20;3.25;;;0.90;;
19951;SDS011;10137;49.406;19.484;2022-10-26T12:04:50;3.08;;;0.70;;
19951;SDS011;10137;49.406;19.484;2022-10-26T12:07:24;3.17;;;0.80;;
19951;SDS011;10137;49.406;19.484;2022-10-26T12:09:58;1.73;;;1.08;;
19951;SDS011;10137;49.406;19.484;2022-10-26T12:12:36;3.10;;;0.75;;
19951;SDS011;10137;49.406;19.484;2022-10-26T12:15:15;1.92;;;0.60;;
19951;SDS011;10137;49.406;19.484;2022-10-26T12:17:58;2.72;;;1.10;;
19951;SDS011;10137;49.406;19.484;2022-10-26T12:23:28;2.67;;;0.70;;
19951;SDS011;10137;49.406;19.484;2022-10-26T12:32:01;4.50;;;1.60;;
19951;SDS011;10137;49.406;19.484;2022-10-26T12:37:30;3.65;;;1.00;;
19951;SDS011;10137;49.406;19.484;2022-10-26T12:52:30;3.13;;;0.83;;
19951;SDS011;10137;49.406;19.484;2022-10-26T12:58:37;2.13;;;0.77;;
19951;SDS011;10137;49.406;19.484;2022-10-26T13:04:19;3.60;;;1.00;;
19951;SDS011;10137;49.406;19.484;2022-10-26T13:07:15;0.97;;;0.67;;
19951;SDS011;10137;49.406;19.484;2022-10-26T13:09:51;1.30;;;0.70;;
19951;SDS011;10137;49.406;19.484;2022-10-26T13:12:25;1.87;;;0.93;;
19951;SDS011;10137;49.406;19.484;2022-10-26T13:14:56;5.30;;;1.10;;
19951;SDS011;10137;49.406;19.484;2022-10-26T13:17:27;5.47;;;1.07;;
19951;SDS011;10137;49.406;19.484;2022-10-26T13:19:56;1.63;;;0.70;;
19951;SDS011;10137;49.406;19.484;2022-10-26T13:22:26;2.87;;;1.00;;
19951;SDS011;10137;49.406;19.484;2022-10-26T13:24:58;2.63;;;0.90;;
19951;SDS011;10137;49.406;19.484;2022-10-26T13:27:40;1.07;;;0.70;;
19951;SDS011;10137;49.406;19.484;2022-10-26T13:30:15;3.40;;;1.07;;
19951;SDS011;10137;49.406;19.484;2022-10-26T13:33:18;1.53;;;0.70;;
19951;SDS011;10137;49.406;19.484;2022-10-26T13:35:49;4.33;;;0.80;;
19951;SDS011;10137;49.406;19.484;2022-10-26T13:38:19;2.47;;;0.60;;
19951;SDS011;10137;49.406;19.484;2022-10-26T13:40:51;1.43;;;0.80;;
19951;SDS011;10137;49.406;19.484;2022-10-26T13:43:25;2.10;;;0.60;;
19951;SDS011;10137;49.406;19.484;2022-10-26T13:45:54;2.60;;;0.80;;
19951;SDS011;10137;49.406;19.484;2022-10-26T13:48:25;4.10;;;0.80;;
19951;SDS011;10137;49.406;19.484;2022-10-26T13:50:59;1.57;;;0.90;;
19951;SDS011;10137;49.406;19.484;2022-10-26T13:53:31;3.40;;;0.80;;
19951;SDS011;10137;49.406;19.484;2022-10-26T13:56:07;2.03;;;0.87;;
19951;SDS011;10137;49.406;19.484;2022-10-26T13:58:42;1.80;;;0.90;;
19951;SDS011;10137;49.406;19.484;2022-10-26T14:01:14;2.60;;;1.07;;
19951;SDS011;10137;49.406;19.484;2022-10-26T14:03:45;2.07;;;1.20;;
19951;SDS011;10137;49.406;19.484;2022-10-26T14:06:15;5.37;;;1.10;;
19951;SDS011;10137;49.406;19.484;2022-10-26T14:08:45;2.47;;;1.60;;
19951;SDS011;10137;49.406;19.484;2022-10-26T14:11:16;2.73;;;1.53;;
19951;SDS011;10137;49.406;19.484;2022-10-26T14:13:45;5.47;;;1.50;;
19951;SDS011;10137;49.406;19.484;2022-10-26T14:16:15;2.80;;;1.60;;
19951;SDS011;10137;49.406;19.484;2022-10-26T14:18:44;2.37;;;1.50;;
19951;SDS011;10137;49.406;19.484;2022-10-26T14:21:14;3.17;;;1.70;;
19951;SDS011;10137;49.406;19.484;2022-10-26T14:23:46;3.80;;;1.33;;
19951;SDS011;10137;49.406;19.484;2022-10-26T14:26:20;2.77;;;1.40;;
19951;SDS011;10137;49.406;19.484;2022-10-26T14:28:49;3.10;;;1.80;;
19951;SDS011;10137;49.406;19.484;2022-10-26T14:31:24;2.37;;;1.50;;
19951;SDS011;10137;49.406;19.484;2022-10-26T14:33:53;1.73;;;1.23;;
19951;SDS011;10137;49.406;19.484;2022-10-26T14:36:22;4.70;;;1.50;;
19951;SDS011;10137;49.406;19.484;2022-10-26T14:38:55;2.50;;;1.40;;
19951;SDS011;10137;49.406;19.484;2022-10-26T14:41:25;6.23;;;1.70;;
19951;SDS011;10137;49.406;19.484;2022-10-26T14:43:54;3.70;;;2.20;;
19951;SDS011;10137;49.406;19.484;2022-10-26T14:46:22;5.13;;;3.00;;
19951;SDS011;10137;49.406;19.484;2022-10-26T14:48:50;5.83;;;3.10;;
19951;SDS011;10137;49.406;19.484;2022-10-26T14:51:19;7.37;;;3.47;;
19951;SDS011;10137;49.406;19.484;2022-10-26T14:53:51;7.07;;;4.70;;
19951;SDS011;10137;49.406;19.484;2022-10-26T14:56:20;12.80;;;5.60;;
